sensor_id;sensor_type;location;lat;lon;timestamp;temperature;humidity
15983;DHT22;14442;50.196;8.096;2024-03-07T00:01:40;23.00;40.80
15983;DHT22;14442;50.196;8.096;2024-03-07T00:04:07;23.00;40.80
15983;DHT22;14442;50.196;8.096;2024-03-07T00:06:33;22.90;40.60
15983;DHT22;14442;50.196;8.096;2024-03-07T00:09:00;22.90;40.40
15983;DHT22;14442;50.196;8.096;2024-03-07T00:11:28;22.80;40.30
15983;DHT22;14442;50.196;8.096;2024-03-07T00:13:56;22.80;40.10
15983;DHT22;14442;50.196;8.096;2024-03-07T00:16:22;22.80;40.10
15983;DHT22;14442;50.196;8.096;2024-03-07T00:18:50;22.70;39.90
15983;DHT22;14442;50.196;8.096;2024-03-07T00:21:17;22.70;39.80
15983;DHT22;14442;50.196;8.096;2024-03-07T00:23:44;22.60;39.70
15983;DHT22;14442;50.196;8.096;2024-03-07T00:26:10;22.60;39.50
15983;DHT22;14442;50.196;8.096;2024-03-07T00:28:37;22.60;39.50
15983;DHT22;14442;50.196;8.096;2024-03-07T00:31:05;22.50;39.30
15983;DHT22;14442;50.196;8.096;2024-03-07T00:33:33;22.50;39.40
15983;DHT22;14442;50.196;8.096;2024-03-07T00:36:01;22.50;39.20
15983;DHT22;14442;50.196;8.096;2024-03-07T00:38:28;22.40;39.00
15983;DHT22;14442;50.196;8.096;2024-03-07T00:40:55;22.40;38.80
15983;DHT22;14442;50.196;8.096;2024-03-07T00:43:21;22.40;38.70
15983;DHT22;14442;50.196;8.096;2024-03-07T00:45:49;22.40;38.80
15983;DHT22;14442;50.196;8.096;2024-03-07T00:48:16;22.30;38.70
15983;DHT22;14442;50.196;8.096;2024-03-07T00:50:43;22.30;38.50
15983;DHT22;14442;50.196;8.096;2024-03-07T00:53:11;22.30;38.40
15983;DHT22;14442;50.196;8.096;2024-03-07T00:55:38;22.20;38.40
15983;DHT22;14442;50.196;8.096;2024-03-07T00:58:04;22.20;38.20
15983;DHT22;14442;50.196;8.096;2024-03-07T01:00:32;22.10;38.10
15983;DHT22;14442;50.196;8.096;2024-03-07T01:02:58;22.10;38.10
15983;DHT22;14442;50.196;8.096;2024-03-07T01:05:25;22.10;38.10
15983;DHT22;14442;50.196;8.096;2024-03-07T01:07:52;22.10;38.10
15983;DHT22;14442;50.196;8.096;2024-03-07T01:10:20;22.00;37.80
15983;DHT22;14442;50.196;8.096;2024-03-07T01:12:47;22.00;37.90
15983;DHT22;14442;50.196;8.096;2024-03-07T01:15:15;22.00;37.90
15983;DHT22;14442;50.196;8.096;2024-03-07T01:17:42;21.90;37.60
15983;DHT22;14442;50.196;8.096;2024-03-07T01:20:10;21.90;37.60
15983;DHT22;14442;50.196;8.096;2024-03-07T01:22:37;21.90;37.50
15983;DHT22;14442;50.196;8.096;2024-03-07T01:25:04;21.90;37.50
15983;DHT22;14442;50.196;8.096;2024-03-07T01:27:33;21.90;37.40
15983;DHT22;14442;50.196;8.096;2024-03-07T01:30:00;21.80;37.50
15983;DHT22;14442;50.196;8.096;2024-03-07T01:32:28;21.80;37.40
15983;DHT22;14442;50.196;8.096;2024-03-07T01:34:55;21.80;37.40
15983;DHT22;14442;50.196;8.096;2024-03-07T01:37:22;21.70;37.30
15983;DHT22;14442;50.196;8.096;2024-03-07T01:39:49;21.70;37.10
15983;DHT22;14442;50.196;8.096;2024-03-07T01:42:15;21.70;37.10
15983;DHT22;14442;50.196;8.096;2024-03-07T01:44:44;21.70;37.20
15983;DHT22;14442;50.196;8.096;2024-03-07T01:47:10;21.70;37.10
15983;DHT22;14442;50.196;8.096;2024-03-07T01:49:38;21.60;37.00
15983;DHT22;14442;50.196;8.096;2024-03-07T01:52:05;21.60;36.80
15983;DHT22;14442;50.196;8.096;2024-03-07T01:54:32;21.60;37.00
15983;DHT22;14442;50.196;8.096;2024-03-07T01:56:59;21.50;36.80
15983;DHT22;14442;50.196;8.096;2024-03-07T01:59:27;21.60;36.80
15983;DHT22;14442;50.196;8.096;2024-03-07T02:01:57;21.50;36.80
15983;DHT22;14442;50.196;8.096;2024-03-07T02:04:23;21.50;36.60
15983;DHT22;14442;50.196;8.096;2024-03-07T02:06:50;21.50;36.70
15983;DHT22;14442;50.196;8.096;2024-03-07T02:09:19;21.40;37.20
15983;DHT22;14442;50.196;8.096;2024-03-07T02:11:47;21.40;36.50
15983;DHT22;14442;50.196;8.096;2024-03-07T02:14:14;21.40;36.50
15983;DHT22;14442;50.196;8.096;2024-03-07T02:16:41;21.40;36.50
15983;DHT22;14442;50.196;8.096;2024-03-07T02:19:10;21.30;36.40
15983;DHT22;14442;50.196;8.096;2024-03-07T02:21:39;21.30;36.30
15983;DHT22;14442;50.196;8.096;2024-03-07T02:24:06;21.30;36.50
15983;DHT22;14442;50.196;8.096;2024-03-07T02:26:34;21.20;36.20
15983;DHT22;14442;50.196;8.096;2024-03-07T02:29:00;21.20;36.30
15983;DHT22;14442;50.196;8.096;2024-03-07T02:31:28;21.20;36.30
15983;DHT22;14442;50.196;8.096;2024-03-07T02:34:00;21.10;36.10
15983;DHT22;14442;50.196;8.096;2024-03-07T02:36:27;21.10;36.20
15983;DHT22;14442;50.196;8.096;2024-03-07T02:38:55;21.10;36.20
15983;DHT22;14442;50.196;8.096;2024-03-07T02:41:22;21.10;36.20
15983;DHT22;14442;50.196;8.096;2024-03-07T02:43:49;21.00;35.90
15983;DHT22;14442;50.196;8.096;2024-03-07T02:46:16;21.00;36.00
15983;DHT22;14442;50.196;8.096;2024-03-07T02:48:43;21.00;36.10
15983;DHT22;14442;50.196;8.096;2024-03-07T02:51:10;21.00;36.00
15983;DHT22;14442;50.196;8.096;2024-03-07T02:53:37;20.90;36.00
15983;DHT22;14442;50.196;8.096;2024-03-07T02:56:06;20.90;35.90
15983;DHT22;14442;50.196;8.096;2024-03-07T02:58:34;20.90;35.90
15983;DHT22;14442;50.196;8.096;2024-03-07T03:01:02;20.80;35.90
15983;DHT22;14442;50.196;8.096;2024-03-07T03:03:29;20.80;35.90
15983;DHT22;14442;50.196;8.096;2024-03-07T03:05:57;20.80;35.90
15983;DHT22;14442;50.196;8.096;2024-03-07T03:08:25;20.70;35.80
15983;DHT22;14442;50.196;8.096;2024-03-07T03:10:54;20.70;35.70
15983;DHT22;14442;50.196;8.096;2024-03-07T03:13:23;20.70;35.70
15983;DHT22;14442;50.196;8.096;2024-03-07T03:15:50;20.70;35.70
15983;DHT22;14442;50.196;8.096;2024-03-07T03:18:16;20.60;35.70
15983;DHT22;14442;50.196;8.096;2024-03-07T03:20:44;20.60;35.80
15983;DHT22;14442;50.196;8.096;2024-03-07T03:23:13;20.60;35.60
15983;DHT22;14442;50.196;8.096;2024-03-07T03:25:40;20.60;35.70
15983;DHT22;14442;50.196;8.096;2024-03-07T03:28:08;20.50;35.60
15983;DHT22;14442;50.196;8.096;2024-03-07T03:30:37;20.50;35.50
15983;DHT22;14442;50.196;8.096;2024-03-07T03:33:04;20.40;35.40
15983;DHT22;14442;50.196;8.096;2024-03-07T03:35:32;20.40;35.60
15983;DHT22;14442;50.196;8.096;2024-03-07T03:37:59;20.40;35.50
15983;DHT22;14442;50.196;8.096;2024-03-07T03:40:25;20.40;35.60
15983;DHT22;14442;50.196;8.096;2024-03-07T03:42:52;20.40;35.60
15983;DHT22;14442;50.196;8.096;2024-03-07T03:45:20;20.30;35.40
15983;DHT22;14442;50.196;8.096;2024-03-07T03:47:48;20.30;35.50
15983;DHT22;14442;50.196;8.096;2024-03-07T03:50:15;20.30;35.40
15983;DHT22;14442;50.196;8.096;2024-03-07T03:52:41;20.30;35.60
15983;DHT22;14442;50.196;8.096;2024-03-07T03:55:08;20.30;35.50
15983;DHT22;14442;50.196;8.096;2024-03-07T03:57:37;20.20;35.40
15983;DHT22;14442;50.196;8.096;2024-03-07T04:00:05;20.20;35.40
15983;DHT22;14442;50.196;8.096;2024-03-07T04:02:38;20.20;35.40
15983;DHT22;14442;50.196;8.096;2024-03-07T04:05:07;20.20;35.40
15983;DHT22;14442;50.196;8.096;2024-03-07T04:07:34;20.10;35.40
15983;DHT22;14442;50.196;8.096;2024-03-07T04:10:02;20.10;35.30
15983;DHT22;14442;50.196;8.096;2024-03-07T04:12:30;20.10;35.40
15983;DHT22;14442;50.196;8.096;2024-03-07T04:14:56;20.10;35.40
15983;DHT22;14442;50.196;8.096;2024-03-07T04:17:23;20.00;35.20
15983;DHT22;14442;50.196;8.096;2024-03-07T04:19:50;20.00;35.30
15983;DHT22;14442;50.196;8.096;2024-03-07T04:22:18;20.00;35.40
15983;DHT22;14442;50.196;8.096;2024-03-07T04:24:46;20.00;35.40
15983;DHT22;14442;50.196;8.096;2024-03-07T04:27:13;19.90;35.20
15983;DHT22;14442;50.196;8.096;2024-03-07T04:29:41;19.90;35.20
15983;DHT22;14442;50.196;8.096;2024-03-07T04:32:08;19.90;35.20
15983;DHT22;14442;50.196;8.096;2024-03-07T04:34:34;19.90;35.20
15983;DHT22;14442;50.196;8.096;2024-03-07T04:37:02;19.90;35.20
15983;DHT22;14442;50.196;8.096;2024-03-07T04:39:31;19.80;35.30
15983;DHT22;14442;50.196;8.096;2024-03-07T04:41:59;19.80;35.20
15983;DHT22;14442;50.196;8.096;2024-03-07T04:44:27;19.80;35.20
15983;DHT22;14442;50.196;8.096;2024-03-07T04:46:54;19.80;35.30
15983;DHT22;14442;50.196;8.096;2024-03-07T04:49:22;19.80;35.30
15983;DHT22;14442;50.196;8.096;2024-03-07T04:51:49;19.80;35.30
15983;DHT22;14442;50.196;8.096;2024-03-07T04:54:16;19.70;35.20
15983;DHT22;14442;50.196;8.096;2024-03-07T04:56:45;19.70;35.20
15983;DHT22;14442;50.196;8.096;2024-03-07T04:59:12;19.70;35.10
15983;DHT22;14442;50.196;8.096;2024-03-07T05:01:39;19.70;35.00
15983;DHT22;14442;50.196;8.096;2024-03-07T05:04:05;19.70;34.70
15983;DHT22;14442;50.196;8.096;2024-03-07T05:06:32;19.80;34.60
15983;DHT22;14442;50.196;8.096;2024-03-07T05:09:00;19.80;34.60
15983;DHT22;14442;50.196;8.096;2024-03-07T05:11:28;19.80;34.70
15983;DHT22;14442;50.196;8.096;2024-03-07T05:13:57;19.80;34.80
15983;DHT22;14442;50.196;8.096;2024-03-07T05:16:24;19.90;34.90
15983;DHT22;14442;50.196;8.096;2024-03-07T05:18:51;19.90;35.00
15983;DHT22;14442;50.196;8.096;2024-03-07T05:21:18;19.90;35.00
15983;DHT22;14442;50.196;8.096;2024-03-07T05:24:04;19.90;35.00
15983;DHT22;14442;50.196;8.096;2024-03-07T05:26:31;20.00;35.20
15983;DHT22;14442;50.196;8.096;2024-03-07T05:29:01;20.00;35.30
15983;DHT22;14442;50.196;8.096;2024-03-07T05:31:30;20.00;35.40
15983;DHT22;14442;50.196;8.096;2024-03-07T05:33:59;19.90;35.50
15983;DHT22;14442;50.196;8.096;2024-03-07T05:36:29;20.00;35.70
15983;DHT22;14442;50.196;8.096;2024-03-07T05:38:56;19.90;35.70
15983;DHT22;14442;50.196;8.096;2024-03-07T05:41:23;20.00;35.80
15983;DHT22;14442;50.196;8.096;2024-03-07T05:43:49;20.00;35.90
15983;DHT22;14442;50.196;8.096;2024-03-07T05:46:18;20.00;36.10
15983;DHT22;14442;50.196;8.096;2024-03-07T05:48:45;20.00;36.90
15983;DHT22;14442;50.196;8.096;2024-03-07T05:51:15;19.90;36.20
15983;DHT22;14442;50.196;8.096;2024-03-07T05:53:42;20.00;36.30
15983;DHT22;14442;50.196;8.096;2024-03-07T05:56:09;20.00;36.30
15983;DHT22;14442;50.196;8.096;2024-03-07T05:58:35;20.00;36.30
15983;DHT22;14442;50.196;8.096;2024-03-07T06:01:02;20.00;36.20
15983;DHT22;14442;50.196;8.096;2024-03-07T06:03:30;20.10;36.40
15983;DHT22;14442;50.196;8.096;2024-03-07T06:05:57;20.10;36.30
15983;DHT22;14442;50.196;8.096;2024-03-07T06:08:24;20.10;36.30
15983;DHT22;14442;50.196;8.096;2024-03-07T06:10:51;20.10;36.30
15983;DHT22;14442;50.196;8.096;2024-03-07T06:13:18;20.20;36.40
15983;DHT22;14442;50.196;8.096;2024-03-07T06:15:45;20.20;36.40
15983;DHT22;14442;50.196;8.096;2024-03-07T06:18:13;20.20;36.40
15983;DHT22;14442;50.196;8.096;2024-03-07T06:20:41;20.30;36.40
15983;DHT22;14442;50.196;8.096;2024-03-07T06:23:08;20.20;36.50
15983;DHT22;14442;50.196;8.096;2024-03-07T06:25:37;20.20;36.40
15983;DHT22;14442;50.196;8.096;2024-03-07T06:28:13;20.30;36.50
15983;DHT22;14442;50.196;8.096;2024-03-07T06:30:41;20.30;36.50
15983;DHT22;14442;50.196;8.096;2024-03-07T06:33:08;20.30;36.50
15983;DHT22;14442;50.196;8.096;2024-03-07T06:35:35;20.40;36.60
15983;DHT22;14442;50.196;8.096;2024-03-07T06:38:05;20.40;36.60
15983;DHT22;14442;50.196;8.096;2024-03-07T06:40:33;20.40;36.60
15983;DHT22;14442;50.196;8.096;2024-03-07T06:43:00;20.40;36.60
15983;DHT22;14442;50.196;8.096;2024-03-07T06:45:29;20.40;36.60
15983;DHT22;14442;50.196;8.096;2024-03-07T06:47:56;20.50;36.60
15983;DHT22;14442;50.196;8.096;2024-03-07T06:50:23;20.50;36.60
15983;DHT22;14442;50.196;8.096;2024-03-07T06:52:49;20.50;36.60
15983;DHT22;14442;50.196;8.096;2024-03-07T06:55:18;20.50;36.70
15983;DHT22;14442;50.196;8.096;2024-03-07T06:57:46;20.50;36.60
15983;DHT22;14442;50.196;8.096;2024-03-07T07:00:14;20.60;36.70
15983;DHT22;14442;50.196;8.096;2024-03-07T07:02:45;20.60;36.80
15983;DHT22;14442;50.196;8.096;2024-03-07T07:05:11;20.60;36.80
15983;DHT22;14442;50.196;8.096;2024-03-07T07:07:40;20.60;36.80
15983;DHT22;14442;50.196;8.096;2024-03-07T07:10:09;20.60;36.70
15983;DHT22;14442;50.196;8.096;2024-03-07T07:12:42;20.60;36.80
15983;DHT22;14442;50.196;8.096;2024-03-07T07:15:10;20.70;36.90
15983;DHT22;14442;50.196;8.096;2024-03-07T07:17:37;20.70;36.90
15983;DHT22;14442;50.196;8.096;2024-03-07T07:20:04;20.70;36.90
15983;DHT22;14442;50.196;8.096;2024-03-07T07:22:36;20.70;36.90
15983;DHT22;14442;50.196;8.096;2024-03-07T07:25:03;20.70;36.90
15983;DHT22;14442;50.196;8.096;2024-03-07T07:27:31;20.70;36.90
15983;DHT22;14442;50.196;8.096;2024-03-07T07:29:59;20.70;37.60
15983;DHT22;14442;50.196;8.096;2024-03-07T07:32:26;20.70;36.90
15983;DHT22;14442;50.196;8.096;2024-03-07T07:34:53;20.80;37.00
15983;DHT22;14442;50.196;8.096;2024-03-07T07:37:20;20.80;37.00
15983;DHT22;14442;50.196;8.096;2024-03-07T07:39:48;20.80;37.00
15983;DHT22;14442;50.196;8.096;2024-03-07T07:42:15;20.80;37.10
15983;DHT22;14442;50.196;8.096;2024-03-07T07:44:42;20.80;37.00
15983;DHT22;14442;50.196;8.096;2024-03-07T07:47:11;20.80;37.00
15983;DHT22;14442;50.196;8.096;2024-03-07T07:49:38;20.80;37.10
15983;DHT22;14442;50.196;8.096;2024-03-07T07:52:05;20.80;37.00
15983;DHT22;14442;50.196;8.096;2024-03-07T07:54:32;20.80;37.00
15983;DHT22;14442;50.196;8.096;2024-03-07T07:56:58;20.80;37.10
15983;DHT22;14442;50.196;8.096;2024-03-07T07:59:25;20.90;37.10
15983;DHT22;14442;50.196;8.096;2024-03-07T08:01:52;20.90;37.10
15983;DHT22;14442;50.196;8.096;2024-03-07T08:04:22;20.90;37.10
15983;DHT22;14442;50.196;8.096;2024-03-07T08:06:49;20.90;37.10
15983;DHT22;14442;50.196;8.096;2024-03-07T08:09:17;20.90;37.10
15983;DHT22;14442;50.196;8.096;2024-03-07T08:11:44;20.90;37.10
15983;DHT22;14442;50.196;8.096;2024-03-07T08:14:10;21.00;37.20
15983;DHT22;14442;50.196;8.096;2024-03-07T08:16:37;20.90;37.10
15983;DHT22;14442;50.196;8.096;2024-03-07T08:19:04;20.90;37.20
15983;DHT22;14442;50.196;8.096;2024-03-07T08:21:33;21.00;37.30
15983;DHT22;14442;50.196;8.096;2024-03-07T08:24:00;21.00;37.60
15983;DHT22;14442;50.196;8.096;2024-03-07T08:26:29;21.00;37.30
15983;DHT22;14442;50.196;8.096;2024-03-07T08:28:56;21.00;37.30
15983;DHT22;14442;50.196;8.096;2024-03-07T08:31:22;21.00;37.30
15983;DHT22;14442;50.196;8.096;2024-03-07T08:33:49;21.00;37.30
15983;DHT22;14442;50.196;8.096;2024-03-07T08:36:16;21.00;37.30
15983;DHT22;14442;50.196;8.096;2024-03-07T08:38:44;21.00;37.30
15983;DHT22;14442;50.196;8.096;2024-03-07T08:41:12;21.00;37.30
15983;DHT22;14442;50.196;8.096;2024-03-07T08:43:38;21.00;37.30
15983;DHT22;14442;50.196;8.096;2024-03-07T08:46:05;21.00;37.40
15983;DHT22;14442;50.196;8.096;2024-03-07T08:48:32;21.00;37.40
15983;DHT22;14442;50.196;8.096;2024-03-07T08:50:58;21.00;37.40
15983;DHT22;14442;50.196;8.096;2024-03-07T08:53:25;21.00;37.40
15983;DHT22;14442;50.196;8.096;2024-03-07T08:55:53;21.00;37.30
15983;DHT22;14442;50.196;8.096;2024-03-07T08:58:20;21.00;37.40
15983;DHT22;14442;50.196;8.096;2024-03-07T09:00:47;21.00;37.40
15983;DHT22;14442;50.196;8.096;2024-03-07T09:03:16;21.00;37.40
15983;DHT22;14442;50.196;8.096;2024-03-07T09:05:44;21.00;37.40
15983;DHT22;14442;50.196;8.096;2024-03-07T09:08:10;21.00;37.40
15983;DHT22;14442;50.196;8.096;2024-03-07T09:10:37;21.00;37.40
15983;DHT22;14442;50.196;8.096;2024-03-07T09:13:08;21.10;37.50
15983;DHT22;14442;50.196;8.096;2024-03-07T09:15:35;21.00;37.40
15983;DHT22;14442;50.196;8.096;2024-03-07T09:18:03;21.10;37.50
15983;DHT22;14442;50.196;8.096;2024-03-07T09:20:30;21.10;37.50
15983;DHT22;14442;50.196;8.096;2024-03-07T09:22:56;21.10;37.50
15983;DHT22;14442;50.196;8.096;2024-03-07T09:25:25;21.10;37.50
15983;DHT22;14442;50.196;8.096;2024-03-07T09:27:52;21.10;37.50
15983;DHT22;14442;50.196;8.096;2024-03-07T09:30:21;21.10;37.50
15983;DHT22;14442;50.196;8.096;2024-03-07T09:32:50;21.10;37.60
15983;DHT22;14442;50.196;8.096;2024-03-07T09:35:17;21.10;37.60
15983;DHT22;14442;50.196;8.096;2024-03-07T09:37:44;21.10;37.60
15983;DHT22;14442;50.196;8.096;2024-03-07T09:40:11;21.10;37.60
15983;DHT22;14442;50.196;8.096;2024-03-07T09:42:42;21.10;37.60
15983;DHT22;14442;50.196;8.096;2024-03-07T09:45:14;21.20;37.70
15983;DHT22;14442;50.196;8.096;2024-03-07T09:47:45;21.20;37.60
15983;DHT22;14442;50.196;8.096;2024-03-07T09:50:13;21.20;37.60
15983;DHT22;14442;50.196;8.096;2024-03-07T09:52:41;21.20;37.70
15983;DHT22;14442;50.196;8.096;2024-03-07T09:55:10;21.20;37.70
15983;DHT22;14442;50.196;8.096;2024-03-07T09:57:38;21.20;37.80
15983;DHT22;14442;50.196;8.096;2024-03-07T10:00:07;21.20;37.80
15983;DHT22;14442;50.196;8.096;2024-03-07T10:02:36;21.20;37.90
15983;DHT22;14442;50.196;8.096;2024-03-07T10:05:10;21.30;37.90
15983;DHT22;14442;50.196;8.096;2024-03-07T10:07:39;21.30;37.80
15983;DHT22;14442;50.196;8.096;2024-03-07T10:10:08;21.40;38.00
15983;DHT22;14442;50.196;8.096;2024-03-07T10:12:37;21.50;38.00
15983;DHT22;14442;50.196;8.096;2024-03-07T10:15:05;21.60;38.00
15983;DHT22;14442;50.196;8.096;2024-03-07T10:17:35;21.60;38.00
15983;DHT22;14442;50.196;8.096;2024-03-07T10:20:02;21.70;38.10
15983;DHT22;14442;50.196;8.096;2024-03-07T10:22:31;21.70;38.00
15983;DHT22;14442;50.196;8.096;2024-03-07T10:24:57;21.80;38.10
15983;DHT22;14442;50.196;8.096;2024-03-07T10:27:26;21.80;38.10
15983;DHT22;14442;50.196;8.096;2024-03-07T10:29:54;21.80;38.10
15983;DHT22;14442;50.196;8.096;2024-03-07T10:32:21;21.80;38.10
15983;DHT22;14442;50.196;8.096;2024-03-07T10:34:50;21.70;38.30
15983;DHT22;14442;50.196;8.096;2024-03-07T10:37:17;21.70;38.40
15983;DHT22;14442;50.196;8.096;2024-03-07T10:39:47;21.70;38.40
15983;DHT22;14442;50.196;8.096;2024-03-07T10:42:15;21.70;39.00
15983;DHT22;14442;50.196;8.096;2024-03-07T10:44:44;21.80;38.40
15983;DHT22;14442;50.196;8.096;2024-03-07T10:47:15;21.80;38.40
15983;DHT22;14442;50.196;8.096;2024-03-07T10:49:53;21.80;38.40
15983;DHT22;14442;50.196;8.096;2024-03-07T10:52:28;21.80;38.40
15983;DHT22;14442;50.196;8.096;2024-03-07T10:55:08;21.80;38.40
15983;DHT22;14442;50.196;8.096;2024-03-07T10:57:45;21.80;38.50
15983;DHT22;14442;50.196;8.096;2024-03-07T11:00:16;21.80;38.40
15983;DHT22;14442;50.196;8.096;2024-03-07T11:03:01;21.90;38.40
15983;DHT22;14442;50.196;8.096;2024-03-07T11:05:32;21.90;38.40
15983;DHT22;14442;50.196;8.096;2024-03-07T11:08:00;22.00;38.50
15983;DHT22;14442;50.196;8.096;2024-03-07T11:10:32;22.00;38.50
15983;DHT22;14442;50.196;8.096;2024-03-07T11:13:00;22.00;38.40
15983;DHT22;14442;50.196;8.096;2024-03-07T11:15:27;22.00;38.40
15983;DHT22;14442;50.196;8.096;2024-03-07T11:17:55;22.10;38.50
15983;DHT22;14442;50.196;8.096;2024-03-07T11:20:23;22.00;38.50
15983;DHT22;14442;50.196;8.096;2024-03-07T11:22:50;22.10;38.40
15983;DHT22;14442;50.196;8.096;2024-03-07T11:25:20;22.10;38.50
15983;DHT22;14442;50.196;8.096;2024-03-07T11:27:55;22.10;38.60
15983;DHT22;14442;50.196;8.096;2024-03-07T11:30:22;22.10;38.40
15983;DHT22;14442;50.196;8.096;2024-03-07T11:32:50;22.20;38.60
15983;DHT22;14442;50.196;8.096;2024-03-07T11:35:19;22.10;38.40
15983;DHT22;14442;50.196;8.096;2024-03-07T11:37:56;22.20;38.50
15983;DHT22;14442;50.196;8.096;2024-03-07T11:40:44;22.30;38.60
15983;DHT22;14442;50.196;8.096;2024-03-07T11:43:15;22.30;38.60
15983;DHT22;14442;50.196;8.096;2024-03-07T11:45:42;22.30;38.50
15983;DHT22;14442;50.196;8.096;2024-03-07T11:48:17;22.30;38.50
15983;DHT22;14442;50.196;8.096;2024-03-07T11:50:46;22.30;38.50
15983;DHT22;14442;50.196;8.096;2024-03-07T11:53:14;22.40;39.20
15983;DHT22;14442;50.196;8.096;2024-03-07T11:55:41;22.50;38.70
15983;DHT22;14442;50.196;8.096;2024-03-07T11:58:13;22.50;38.70
15983;DHT22;14442;50.196;8.096;2024-03-07T12:00:44;22.50;38.70
15983;DHT22;14442;50.196;8.096;2024-03-07T12:03:12;22.50;38.70
15983;DHT22;14442;50.196;8.096;2024-03-07T12:05:40;22.50;38.60
15983;DHT22;14442;50.196;8.096;2024-03-07T12:08:09;22.60;38.70
15983;DHT22;14442;50.196;8.096;2024-03-07T12:10:36;22.60;38.70
15983;DHT22;14442;50.196;8.096;2024-03-07T12:13:05;22.60;38.70
15983;DHT22;14442;50.196;8.096;2024-03-07T12:15:32;22.60;38.70
15983;DHT22;14442;50.196;8.096;2024-03-07T12:18:02;22.60;38.70
15983;DHT22;14442;50.196;8.096;2024-03-07T12:20:35;22.70;38.80
15983;DHT22;14442;50.196;8.096;2024-03-07T12:23:03;22.60;38.70
15983;DHT22;14442;50.196;8.096;2024-03-07T12:25:31;22.70;38.80
15983;DHT22;14442;50.196;8.096;2024-03-07T12:28:02;22.70;38.80
15983;DHT22;14442;50.196;8.096;2024-03-07T12:30:32;22.70;38.80
15983;DHT22;14442;50.196;8.096;2024-03-07T12:33:00;22.80;39.20
15983;DHT22;14442;50.196;8.096;2024-03-07T12:35:29;22.80;39.20
15983;DHT22;14442;50.196;8.096;2024-03-07T12:37:56;22.80;39.50
15983;DHT22;14442;50.196;8.096;2024-03-07T12:40:23;22.80;39.30
15983;DHT22;14442;50.196;8.096;2024-03-07T12:42:51;22.80;39.40
15983;DHT22;14442;50.196;8.096;2024-03-07T12:45:21;22.80;39.40
15983;DHT22;14442;50.196;8.096;2024-03-07T12:47:48;22.90;39.60
15983;DHT22;14442;50.196;8.096;2024-03-07T12:50:18;22.90;39.60
15983;DHT22;14442;50.196;8.096;2024-03-07T12:52:46;22.80;39.60
15983;DHT22;14442;50.196;8.096;2024-03-07T12:55:15;22.80;39.60
15983;DHT22;14442;50.196;8.096;2024-03-07T12:57:43;22.90;39.80
15983;DHT22;14442;50.196;8.096;2024-03-07T13:00:11;22.90;39.90
15983;DHT22;14442;50.196;8.096;2024-03-07T13:02:45;22.90;40.20
15983;DHT22;14442;50.196;8.096;2024-03-07T13:05:12;22.90;40.10
15983;DHT22;14442;50.196;8.096;2024-03-07T13:07:45;23.00;39.80
15983;DHT22;14442;50.196;8.096;2024-03-07T13:10:14;22.90;40.30
15983;DHT22;14442;50.196;8.096;2024-03-07T13:12:42;23.00;40.10
15983;DHT22;14442;50.196;8.096;2024-03-07T13:15:11;23.10;39.80
15983;DHT22;14442;50.196;8.096;2024-03-07T13:17:37;23.00;39.80
15983;DHT22;14442;50.196;8.096;2024-03-07T13:20:05;23.00;39.70
15983;DHT22;14442;50.196;8.096;2024-03-07T13:22:38;23.00;39.60
15983;DHT22;14442;50.196;8.096;2024-03-07T13:25:06;23.00;39.50
15983;DHT22;14442;50.196;8.096;2024-03-07T13:27:40;23.00;39.40
15983;DHT22;14442;50.196;8.096;2024-03-07T13:30:10;23.00;39.40
15983;DHT22;14442;50.196;8.096;2024-03-07T13:32:49;23.00;39.40
15983;DHT22;14442;50.196;8.096;2024-03-07T13:35:18;23.00;39.40
15983;DHT22;14442;50.196;8.096;2024-03-07T13:37:46;23.00;39.30
15983;DHT22;14442;50.196;8.096;2024-03-07T13:40:15;23.00;39.30
15983;DHT22;14442;50.196;8.096;2024-03-07T13:42:53;23.00;39.30
15983;DHT22;14442;50.196;8.096;2024-03-07T13:45:21;23.00;39.30
15983;DHT22;14442;50.196;8.096;2024-03-07T13:47:48;23.00;39.20
15983;DHT22;14442;50.196;8.096;2024-03-07T13:50:16;23.00;39.30
15983;DHT22;14442;50.196;8.096;2024-03-07T13:52:45;23.00;39.30
15983;DHT22;14442;50.196;8.096;2024-03-07T13:55:32;23.00;39.30
15983;DHT22;14442;50.196;8.096;2024-03-07T13:58:04;23.00;39.30
15983;DHT22;14442;50.196;8.096;2024-03-07T14:00:43;23.00;39.30
15983;DHT22;14442;50.196;8.096;2024-03-07T14:03:50;23.00;39.30
15983;DHT22;14442;50.196;8.096;2024-03-07T14:06:25;23.00;39.20
15983;DHT22;14442;50.196;8.096;2024-03-07T14:12:19;22.90;39.30
15983;DHT22;14442;50.196;8.096;2024-03-07T14:18:26;22.70;39.30
15983;DHT22;14442;50.196;8.096;2024-03-07T14:21:23;22.70;39.30
15983;DHT22;14442;50.196;8.096;2024-03-07T14:24:16;22.70;39.40
15983;DHT22;14442;50.196;8.096;2024-03-07T14:27:14;22.60;39.30
15983;DHT22;14442;50.196;8.096;2024-03-07T14:29:48;22.60;39.30
15983;DHT22;14442;50.196;8.096;2024-03-07T14:32:17;22.60;39.30
15983;DHT22;14442;50.196;8.096;2024-03-07T14:34:57;22.60;39.40
15983;DHT22;14442;50.196;8.096;2024-03-07T14:37:27;22.50;39.20
15983;DHT22;14442;50.196;8.096;2024-03-07T14:40:06;22.50;39.20
15983;DHT22;14442;50.196;8.096;2024-03-07T14:42:37;22.50;39.20
15983;DHT22;14442;50.196;8.096;2024-03-07T14:45:10;22.50;39.20
15983;DHT22;14442;50.196;8.096;2024-03-07T14:47:38;22.50;39.20
15983;DHT22;14442;50.196;8.096;2024-03-07T14:50:06;22.50;39.20
15983;DHT22;14442;50.196;8.096;2024-03-07T14:52:35;22.50;39.20
15983;DHT22;14442;50.196;8.096;2024-03-07T14:55:06;22.50;39.20
15983;DHT22;14442;50.196;8.096;2024-03-07T14:57:33;22.50;39.10
15983;DHT22;14442;50.196;8.096;2024-03-07T15:00:01;22.50;39.10
15983;DHT22;14442;50.196;8.096;2024-03-07T15:02:29;22.50;39.10
15983;DHT22;14442;50.196;8.096;2024-03-07T15:04:55;22.50;39.10
15983;DHT22;14442;50.196;8.096;2024-03-07T15:07:22;22.50;39.10
15983;DHT22;14442;50.196;8.096;2024-03-07T15:09:50;22.50;39.10
15983;DHT22;14442;50.196;8.096;2024-03-07T15:12:16;22.50;39.00
15983;DHT22;14442;50.196;8.096;2024-03-07T15:14:43;22.50;39.10
15983;DHT22;14442;50.196;8.096;2024-03-07T15:17:11;22.50;39.10
15983;DHT22;14442;50.196;8.096;2024-03-07T15:19:38;22.50;39.10
15983;DHT22;14442;50.196;8.096;2024-03-07T15:22:05;22.50;39.00
15983;DHT22;14442;50.196;8.096;2024-03-07T15:24:32;22.50;39.00
15983;DHT22;14442;50.196;8.096;2024-03-07T15:27:01;22.50;39.00
15983;DHT22;14442;50.196;8.096;2024-03-07T15:29:28;22.50;39.00
15983;DHT22;14442;50.196;8.096;2024-03-07T15:31:55;22.50;39.00
15983;DHT22;14442;50.196;8.096;2024-03-07T15:34:24;22.50;39.00
15983;DHT22;14442;50.196;8.096;2024-03-07T15:36:59;22.50;39.00
15983;DHT22;14442;50.196;8.096;2024-03-07T15:39:28;22.50;39.00
15983;DHT22;14442;50.196;8.096;2024-03-07T15:41:56;22.50;39.00
15983;DHT22;14442;50.196;8.096;2024-03-07T15:44:24;22.50;39.00
15983;DHT22;14442;50.196;8.096;2024-03-07T15:46:51;22.50;39.00